sensor_id;sensor_type;location;lat;lon;timestamp;P1;durP1;ratioP1;P2;durP2;ratioP2
20844;SDS011;10583;49.084;8.646;2023-08-24T00:01:03;6.87;;;6.87;;
20844;SDS011;10583;49.084;8.646;2023-08-24T00:03:31;6.38;;;6.38;;
20844;SDS011;10583;49.084;8.646;2023-08-24T00:05:58;6.53;;;6.53;;
20844;SDS011;10583;49.084;8.646;2023-08-24T00:08:25;5.85;;;5.85;;
20844;SDS011;10583;49.084;8.646;2023-08-24T00:10:53;6.07;;;6.07;;
20844;SDS011;10583;49.084;8.646;2023-08-24T00:13:20;6.18;;;6.18;;
20844;SDS011;10583;49.084;8.646;2023-08-24T00:15:48;7.55;;;7.55;;
20844;SDS011;10583;49.084;8.646;2023-08-24T00:18:15;6.90;;;6.90;;
20844;SDS011;10583;49.084;8.646;2023-08-24T00:20:43;6.87;;;6.87;;
20844;SDS011;10583;49.084;8.646;2023-08-24T00:23:10;6.20;;;6.20;;
20844;SDS011;10583;49.084;8.646;2023-08-24T00:25:38;8.13;;;8.13;;
20844;SDS011;10583;49.084;8.646;2023-08-24T00:28:06;6.37;;;6.37;;
20844;SDS011;10583;49.084;8.646;2023-08-24T00:30:33;5.90;;;5.90;;
20844;SDS011;10583;49.084;8.646;2023-08-24T00:33:02;6.32;;;6.32;;
20844;SDS011;10583;49.084;8.646;2023-08-24T00:35:29;6.70;;;6.70;;
20844;SDS011;10583;49.084;8.646;2023-08-24T00:37:56;6.45;;;6.45;;
20844;SDS011;10583;49.084;8.646;2023-08-24T00:40:23;7.17;;;7.17;;
20844;SDS011;10583;49.084;8.646;2023-08-24T00:42:51;8.30;;;8.30;;
20844;SDS011;10583;49.084;8.646;2023-08-24T00:45:18;8.23;;;8.23;;
20844;SDS011;10583;49.084;8.646;2023-08-24T00:47:46;8.30;;;8.30;;
20844;SDS011;10583;49.084;8.646;2023-08-24T00:50:16;8.00;;;8.00;;
20844;SDS011;10583;49.084;8.646;2023-08-24T00:52:44;6.10;;;6.10;;
20844;SDS011;10583;49.084;8.646;2023-08-24T00:55:12;6.03;;;6.03;;
20844;SDS011;10583;49.084;8.646;2023-08-24T00:57:40;6.67;;;6.67;;
20844;SDS011;10583;49.084;8.646;2023-08-24T01:00:08;6.70;;;6.70;;
20844;SDS011;10583;49.084;8.646;2023-08-24T01:02:36;5.90;;;5.90;;
20844;SDS011;10583;49.084;8.646;2023-08-24T01:05:04;6.30;;;6.30;;
20844;SDS011;10583;49.084;8.646;2023-08-24T01:07:33;6.23;;;6.23;;
20844;SDS011;10583;49.084;8.646;2023-08-24T01:10:03;5.23;;;5.23;;
20844;SDS011;10583;49.084;8.646;2023-08-24T01:12:32;5.07;;;5.07;;
20844;SDS011;10583;49.084;8.646;2023-08-24T01:15:09;5.17;;;5.17;;
20844;SDS011;10583;49.084;8.646;2023-08-24T01:17:42;5.67;;;5.67;;
20844;SDS011;10583;49.084;8.646;2023-08-24T01:20:10;5.90;;;5.90;;
20844;SDS011;10583;49.084;8.646;2023-08-24T01:22:44;5.00;;;5.00;;
20844;SDS011;10583;49.084;8.646;2023-08-24T01:25:20;5.70;;;5.70;;
20844;SDS011;10583;49.084;8.646;2023-08-24T01:27:52;5.83;;;5.83;;
20844;SDS011;10583;49.084;8.646;2023-08-24T01:30:20;5.77;;;5.77;;
20844;SDS011;10583;49.084;8.646;2023-08-24T01:32:47;5.57;;;5.57;;
20844;SDS011;10583;49.084;8.646;2023-08-24T01:35:14;5.63;;;5.63;;
20844;SDS011;10583;49.084;8.646;2023-08-24T01:37:41;5.70;;;5.70;;
20844;SDS011;10583;49.084;8.646;2023-08-24T01:40:10;5.60;;;5.60;;
20844;SDS011;10583;49.084;8.646;2023-08-24T01:42:45;5.13;;;5.13;;
20844;SDS011;10583;49.084;8.646;2023-08-24T01:45:18;6.50;;;6.50;;
20844;SDS011;10583;49.084;8.646;2023-08-24T01:47:47;6.13;;;6.13;;
20844;SDS011;10583;49.084;8.646;2023-08-24T01:50:15;5.53;;;5.53;;
20844;SDS011;10583;49.084;8.646;2023-08-24T01:52:43;5.47;;;5.47;;
20844;SDS011;10583;49.084;8.646;2023-08-24T01:55:10;5.00;;;5.00;;
20844;SDS011;10583;49.084;8.646;2023-08-24T01:57:38;5.70;;;5.70;;
20844;SDS011;10583;49.084;8.646;2023-08-24T02:00:05;5.33;;;5.33;;
20844;SDS011;10583;49.084;8.646;2023-08-24T02:02:36;5.43;;;5.43;;
20844;SDS011;10583;49.084;8.646;2023-08-24T02:05:03;5.73;;;5.73;;
20844;SDS011;10583;49.084;8.646;2023-08-24T02:07:30;5.93;;;5.93;;
20844;SDS011;10583;49.084;8.646;2023-08-24T02:09:57;5.13;;;5.13;;
20844;SDS011;10583;49.084;8.646;2023-08-24T02:12:24;5.30;;;5.30;;
20844;SDS011;10583;49.084;8.646;2023-08-24T02:14:51;5.50;;;5.50;;
20844;SDS011;10583;49.084;8.646;2023-08-24T02:17:18;5.13;;;5.13;;
20844;SDS011;10583;49.084;8.646;2023-08-24T02:19:46;4.93;;;4.93;;
20844;SDS011;10583;49.084;8.646;2023-08-24T02:22:13;5.90;;;5.90;;
20844;SDS011;10583;49.084;8.646;2023-08-24T02:24:40;6.37;;;6.37;;
20844;SDS011;10583;49.084;8.646;2023-08-24T02:27:07;6.53;;;6.53;;
20844;SDS011;10583;49.084;8.646;2023-08-24T02:29:34;6.37;;;6.37;;
20844;SDS011;10583;49.084;8.646;2023-08-24T02:32:01;5.67;;;5.67;;
20844;SDS011;10583;49.084;8.646;2023-08-24T02:34:27;5.70;;;5.70;;
20844;SDS011;10583;49.084;8.646;2023-08-24T02:36:56;4.97;;;4.97;;
20844;SDS011;10583;49.084;8.646;2023-08-24T02:39:22;4.97;;;4.97;;
20844;SDS011;10583;49.084;8.646;2023-08-24T02:41:50;5.60;;;5.60;;
20844;SDS011;10583;49.084;8.646;2023-08-24T02:44:17;5.07;;;5.07;;
20844;SDS011;10583;49.084;8.646;2023-08-24T02:46:44;5.17;;;5.17;;
20844;SDS011;10583;49.084;8.646;2023-08-24T02:49:10;5.53;;;5.53;;
20844;SDS011;10583;49.084;8.646;2023-08-24T02:51:37;5.10;;;5.10;;
20844;SDS011;10583;49.084;8.646;2023-08-24T02:54:05;5.47;;;5.47;;
20844;SDS011;10583;49.084;8.646;2023-08-24T02:56:32;5.37;;;5.37;;
20844;SDS011;10583;49.084;8.646;2023-08-24T02:58:59;5.07;;;5.07;;
20844;SDS011;10583;49.084;8.646;2023-08-24T03:01:25;5.50;;;5.50;;
20844;SDS011;10583;49.084;8.646;2023-08-24T03:03:52;5.97;;;5.97;;
20844;SDS011;10583;49.084;8.646;2023-08-24T03:06:19;6.27;;;6.27;;
20844;SDS011;10583;49.084;8.646;2023-08-24T03:08:46;7.83;;;7.83;;
20844;SDS011;10583;49.084;8.646;2023-08-24T03:11:14;6.60;;;6.60;;
20844;SDS011;10583;49.084;8.646;2023-08-24T03:13:40;6.50;;;6.50;;
20844;SDS011;10583;49.084;8.646;2023-08-24T03:16:08;6.47;;;6.47;;
20844;SDS011;10583;49.084;8.646;2023-08-24T03:18:35;6.10;;;6.10;;
20844;SDS011;10583;49.084;8.646;2023-08-24T03:21:02;5.63;;;5.63;;
20844;SDS011;10583;49.084;8.646;2023-08-24T03:23:29;6.53;;;6.53;;
20844;SDS011;10583;49.084;8.646;2023-08-24T03:25:56;6.43;;;6.43;;
20844;SDS011;10583;49.084;8.646;2023-08-24T03:28:24;6.33;;;6.33;;
20844;SDS011;10583;49.084;8.646;2023-08-24T03:30:51;6.70;;;6.70;;
20844;SDS011;10583;49.084;8.646;2023-08-24T03:33:20;6.97;;;6.97;;
20844;SDS011;10583;49.084;8.646;2023-08-24T03:35:47;6.97;;;6.97;;
20844;SDS011;10583;49.084;8.646;2023-08-24T03:38:14;7.00;;;7.00;;
20844;SDS011;10583;49.084;8.646;2023-08-24T03:40:41;6.00;;;6.00;;
20844;SDS011;10583;49.084;8.646;2023-08-24T03:43:08;5.60;;;5.60;;
20844;SDS011;10583;49.084;8.646;2023-08-24T03:45:36;6.17;;;6.17;;
20844;SDS011;10583;49.084;8.646;2023-08-24T03:48:03;6.10;;;6.10;;
20844;SDS011;10583;49.084;8.646;2023-08-24T03:50:30;6.40;;;6.40;;
20844;SDS011;10583;49.084;8.646;2023-08-24T03:52:56;7.13;;;7.13;;
20844;SDS011;10583;49.084;8.646;2023-08-24T03:55:23;6.80;;;6.80;;
20844;SDS011;10583;49.084;8.646;2023-08-24T03:57:50;7.10;;;7.10;;
20844;SDS011;10583;49.084;8.646;2023-08-24T04:00:16;7.17;;;7.17;;
20844;SDS011;10583;49.084;8.646;2023-08-24T04:02:45;6.63;;;6.63;;
20844;SDS011;10583;49.084;8.646;2023-08-24T04:05:12;6.43;;;6.43;;
20844;SDS011;10583;49.084;8.646;2023-08-24T04:07:38;6.37;;;6.37;;
20844;SDS011;10583;49.084;8.646;2023-08-24T04:10:07;6.60;;;6.60;;
20844;SDS011;10583;49.084;8.646;2023-08-24T04:12:34;6.33;;;6.33;;
20844;SDS011;10583;49.084;8.646;2023-08-24T04:15:01;6.30;;;6.30;;
20844;SDS011;10583;49.084;8.646;2023-08-24T04:17:28;6.60;;;6.60;;
20844;SDS011;10583;49.084;8.646;2023-08-24T04:19:56;6.77;;;6.77;;
20844;SDS011;10583;49.084;8.646;2023-08-24T04:22:23;7.10;;;7.10;;
20844;SDS011;10583;49.084;8.646;2023-08-24T04:24:49;6.37;;;6.37;;
20844;SDS011;10583;49.084;8.646;2023-08-24T04:27:16;6.63;;;6.63;;
20844;SDS011;10583;49.084;8.646;2023-08-24T04:29:43;6.03;;;6.03;;
20844;SDS011;10583;49.084;8.646;2023-08-24T04:32:10;6.30;;;6.30;;
20844;SDS011;10583;49.084;8.646;2023-08-24T04:34:36;7.00;;;7.00;;
20844;SDS011;10583;49.084;8.646;2023-08-24T04:37:05;6.03;;;6.03;;
20844;SDS011;10583;49.084;8.646;2023-08-24T04:39:32;5.85;;;5.85;;
20844;SDS011;10583;49.084;8.646;2023-08-24T04:41:59;6.23;;;6.23;;
20844;SDS011;10583;49.084;8.646;2023-08-24T04:44:25;7.40;;;7.40;;
20844;SDS011;10583;49.084;8.646;2023-08-24T04:46:52;6.63;;;6.63;;
20844;SDS011;10583;49.084;8.646;2023-08-24T04:49:19;6.73;;;6.73;;
20844;SDS011;10583;49.084;8.646;2023-08-24T04:51:45;6.80;;;6.80;;
20844;SDS011;10583;49.084;8.646;2023-08-24T04:54:13;6.27;;;6.27;;
20844;SDS011;10583;49.084;8.646;2023-08-24T04:56:40;6.17;;;6.17;;
20844;SDS011;10583;49.084;8.646;2023-08-24T04:59:07;6.35;;;6.35;;
20844;SDS011;10583;49.084;8.646;2023-08-24T05:01:34;6.70;;;6.70;;
20844;SDS011;10583;49.084;8.646;2023-08-24T05:04:00;6.53;;;6.53;;
20844;SDS011;10583;49.084;8.646;2023-08-24T05:06:27;6.33;;;6.33;;
20844;SDS011;10583;49.084;8.646;2023-08-24T05:08:54;5.90;;;5.90;;
20844;SDS011;10583;49.084;8.646;2023-08-24T05:11:23;6.30;;;6.30;;
20844;SDS011;10583;49.084;8.646;2023-08-24T05:13:54;6.10;;;6.10;;
20844;SDS011;10583;49.084;8.646;2023-08-24T05:16:20;6.63;;;6.63;;
20844;SDS011;10583;49.084;8.646;2023-08-24T05:18:47;6.37;;;6.37;;
20844;SDS011;10583;49.084;8.646;2023-08-24T05:21:16;7.80;;;7.80;;
20844;SDS011;10583;49.084;8.646;2023-08-24T05:23:42;6.70;;;6.70;;
20844;SDS011;10583;49.084;8.646;2023-08-24T05:26:09;5.60;;;5.60;;
20844;SDS011;10583;49.084;8.646;2023-08-24T05:28:37;5.93;;;5.93;;
20844;SDS011;10583;49.084;8.646;2023-08-24T05:31:04;5.50;;;5.50;;
20844;SDS011;10583;49.084;8.646;2023-08-24T05:33:31;5.23;;;5.23;;
20844;SDS011;10583;49.084;8.646;2023-08-24T05:35:58;5.10;;;5.10;;
20844;SDS011;10583;49.084;8.646;2023-08-24T05:38:25;5.32;;;5.32;;
20844;SDS011;10583;49.084;8.646;2023-08-24T05:40:51;5.65;;;5.65;;
20844;SDS011;10583;49.084;8.646;2023-08-24T05:43:18;4.97;;;4.97;;
20844;SDS011;10583;49.084;8.646;2023-08-24T05:45:47;5.22;;;5.22;;
20844;SDS011;10583;49.084;8.646;2023-08-24T05:48:14;5.45;;;5.45;;
20844;SDS011;10583;49.084;8.646;2023-08-24T05:50:44;5.07;;;5.07;;
20844;SDS011;10583;49.084;8.646;2023-08-24T05:53:12;5.05;;;5.05;;
20844;SDS011;10583;49.084;8.646;2023-08-24T05:55:39;4.97;;;4.97;;
20844;SDS011;10583;49.084;8.646;2023-08-24T05:58:05;4.78;;;4.78;;
20844;SDS011;10583;49.084;8.646;2023-08-24T06:00:32;4.95;;;4.95;;
20844;SDS011;10583;49.084;8.646;2023-08-24T06:03:01;4.40;;;4.40;;
20844;SDS011;10583;49.084;8.646;2023-08-24T06:05:29;4.10;;;4.10;;
20844;SDS011;10583;49.084;8.646;2023-08-24T06:07:56;3.88;;;3.88;;
20844;SDS011;10583;49.084;8.646;2023-08-24T06:10:22;4.30;;;4.30;;
20844;SDS011;10583;49.084;8.646;2023-08-24T06:12:51;5.50;;;5.50;;
20844;SDS011;10583;49.084;8.646;2023-08-24T06:15:18;4.30;;;4.30;;
20844;SDS011;10583;49.084;8.646;2023-08-24T06:17:48;4.53;;;4.53;;
20844;SDS011;10583;49.084;8.646;2023-08-24T06:20:17;3.75;;;3.75;;
20844;SDS011;10583;49.084;8.646;2023-08-24T06:22:44;3.88;;;3.88;;
20844;SDS011;10583;49.084;8.646;2023-08-24T06:25:11;3.67;;;3.67;;
20844;SDS011;10583;49.084;8.646;2023-08-24T06:27:37;3.97;;;3.97;;
20844;SDS011;10583;49.084;8.646;2023-08-24T06:30:04;4.10;;;4.10;;
20844;SDS011;10583;49.084;8.646;2023-08-24T06:32:32;3.65;;;3.65;;
20844;SDS011;10583;49.084;8.646;2023-08-24T06:34:59;4.07;;;4.07;;
20844;SDS011;10583;49.084;8.646;2023-08-24T06:37:27;3.97;;;3.97;;
20844;SDS011;10583;49.084;8.646;2023-08-24T06:39:53;3.33;;;3.33;;
20844;SDS011;10583;49.084;8.646;2023-08-24T06:42:20;3.83;;;3.83;;
20844;SDS011;10583;49.084;8.646;2023-08-24T06:44:47;3.75;;;3.75;;
20844;SDS011;10583;49.084;8.646;2023-08-24T06:47:15;3.75;;;3.75;;
20844;SDS011;10583;49.084;8.646;2023-08-24T06:49:42;3.40;;;3.40;;
20844;SDS011;10583;49.084;8.646;2023-08-24T06:52:10;2.85;;;2.85;;
20844;SDS011;10583;49.084;8.646;2023-08-24T06:54:38;2.92;;;2.92;;
20844;SDS011;10583;49.084;8.646;2023-08-24T06:57:04;2.80;;;2.80;;
20844;SDS011;10583;49.084;8.646;2023-08-24T06:59:31;2.55;;;2.55;;
20844;SDS011;10583;49.084;8.646;2023-08-24T07:01:58;2.58;;;2.58;;
20844;SDS011;10583;49.084;8.646;2023-08-24T07:04:25;2.45;;;2.45;;
20844;SDS011;10583;49.084;8.646;2023-08-24T07:06:53;2.75;;;2.75;;
20844;SDS011;10583;49.084;8.646;2023-08-24T07:09:20;2.85;;;2.85;;
20844;SDS011;10583;49.084;8.646;2023-08-24T07:11:48;2.60;;;2.60;;
20844;SDS011;10583;49.084;8.646;2023-08-24T07:14:15;2.67;;;2.67;;
20844;SDS011;10583;49.084;8.646;2023-08-24T07:16:42;2.80;;;2.80;;
20844;SDS011;10583;49.084;8.646;2023-08-24T07:19:09;2.60;;;2.60;;
20844;SDS011;10583;49.084;8.646;2023-08-24T07:21:35;2.85;;;2.85;;
20844;SDS011;10583;49.084;8.646;2023-08-24T07:24:02;2.58;;;2.58;;
20844;SDS011;10583;49.084;8.646;2023-08-24T07:26:29;2.20;;;2.20;;
20844;SDS011;10583;49.084;8.646;2023-08-24T07:28:57;2.38;;;2.38;;
20844;SDS011;10583;49.084;8.646;2023-08-24T07:31:25;2.45;;;2.45;;
20844;SDS011;10583;49.084;8.646;2023-08-24T07:33:51;2.30;;;2.30;;
20844;SDS011;10583;49.084;8.646;2023-08-24T07:36:18;2.75;;;2.75;;
20844;SDS011;10583;49.084;8.646;2023-08-24T07:38:45;2.40;;;2.40;;
20844;SDS011;10583;49.084;8.646;2023-08-24T07:41:12;2.78;;;2.78;;
20844;SDS011;10583;49.084;8.646;2023-08-24T07:43:39;2.58;;;2.58;;
20844;SDS011;10583;49.084;8.646;2023-08-24T07:46:07;2.50;;;2.50;;
20844;SDS011;10583;49.084;8.646;2023-08-24T07:48:34;2.42;;;2.42;;
20844;SDS011;10583;49.084;8.646;2023-08-24T07:51:01;2.67;;;2.67;;
20844;SDS011;10583;49.084;8.646;2023-08-24T07:53:27;2.47;;;2.47;;
20844;SDS011;10583;49.084;8.646;2023-08-24T07:55:54;2.60;;;2.60;;
20844;SDS011;10583;49.084;8.646;2023-08-24T07:58:22;2.30;;;2.30;;
20844;SDS011;10583;49.084;8.646;2023-08-24T08:00:49;2.28;;;2.28;;
20844;SDS011;10583;49.084;8.646;2023-08-24T08:03:18;2.65;;;2.65;;
20844;SDS011;10583;49.084;8.646;2023-08-24T08:05:45;2.28;;;2.28;;
20844;SDS011;10583;49.084;8.646;2023-08-24T08:08:13;2.60;;;2.60;;
20844;SDS011;10583;49.084;8.646;2023-08-24T08:10:40;2.25;;;2.25;;
20844;SDS011;10583;49.084;8.646;2023-08-24T08:13:07;2.58;;;2.58;;
20844;SDS011;10583;49.084;8.646;2023-08-24T08:15:36;2.50;;;2.50;;
20844;SDS011;10583;49.084;8.646;2023-08-24T08:18:04;2.53;;;2.53;;
20844;SDS011;10583;49.084;8.646;2023-08-24T08:20:32;2.05;;;2.05;;
20844;SDS011;10583;49.084;8.646;2023-08-24T08:22:59;2.30;;;2.30;;
20844;SDS011;10583;49.084;8.646;2023-08-24T08:25:25;2.40;;;2.40;;
20844;SDS011;10583;49.084;8.646;2023-08-24T08:27:53;2.50;;;2.50;;
20844;SDS011;10583;49.084;8.646;2023-08-24T08:30:20;2.40;;;2.40;;
20844;SDS011;10583;49.084;8.646;2023-08-24T08:32:47;2.30;;;2.30;;
20844;SDS011;10583;49.084;8.646;2023-08-24T08:35:16;2.30;;;2.30;;
20844;SDS011;10583;49.084;8.646;2023-08-24T08:37:44;2.55;;;2.55;;
20844;SDS011;10583;49.084;8.646;2023-08-24T08:40:11;2.30;;;2.30;;
20844;SDS011;10583;49.084;8.646;2023-08-24T08:42:39;2.55;;;2.55;;
20844;SDS011;10583;49.084;8.646;2023-08-24T08:45:08;2.42;;;2.42;;
20844;SDS011;10583;49.084;8.646;2023-08-24T08:47:36;2.42;;;2.42;;
20844;SDS011;10583;49.084;8.646;2023-08-24T08:50:04;2.78;;;2.78;;
20844;SDS011;10583;49.084;8.646;2023-08-24T08:52:31;2.63;;;2.63;;
20844;SDS011;10583;49.084;8.646;2023-08-24T08:55:00;2.67;;;2.67;;
20844;SDS011;10583;49.084;8.646;2023-08-24T08:57:31;3.08;;;3.08;;
20844;SDS011;10583;49.084;8.646;2023-08-24T08:59:59;2.38;;;2.38;;
20844;SDS011;10583;49.084;8.646;2023-08-24T09:02:26;2.55;;;2.55;;
20844;SDS011;10583;49.084;8.646;2023-08-24T09:04:54;2.50;;;2.50;;
20844;SDS011;10583;49.084;8.646;2023-08-24T09:07:22;2.80;;;2.80;;
20844;SDS011;10583;49.084;8.646;2023-08-24T09:09:49;2.40;;;2.40;;
20844;SDS011;10583;49.084;8.646;2023-08-24T09:12:17;3.05;;;3.05;;
20844;SDS011;10583;49.084;8.646;2023-08-24T09:14:44;2.35;;;2.35;;
20844;SDS011;10583;49.084;8.646;2023-08-24T09:17:13;2.80;;;2.80;;
20844;SDS011;10583;49.084;8.646;2023-08-24T09:19:46;2.40;;;2.40;;
20844;SDS011;10583;49.084;8.646;2023-08-24T09:22:15;2.60;;;2.60;;
20844;SDS011;10583;49.084;8.646;2023-08-24T09:24:42;2.80;;;2.80;;
20844;SDS011;10583;49.084;8.646;2023-08-24T09:27:14;2.35;;;2.35;;
20844;SDS011;10583;49.084;8.646;2023-08-24T09:29:46;2.58;;;2.58;;
20844;SDS011;10583;49.084;8.646;2023-08-24T09:32:14;2.88;;;2.88;;
20844;SDS011;10583;49.084;8.646;2023-08-24T09:34:41;2.70;;;2.70;;
20844;SDS011;10583;49.084;8.646;2023-08-24T09:37:12;2.80;;;2.80;;
20844;SDS011;10583;49.084;8.646;2023-08-24T09:39:40;2.50;;;2.50;;
20844;SDS011;10583;49.084;8.646;2023-08-24T09:42:07;2.83;;;2.83;;
20844;SDS011;10583;49.084;8.646;2023-08-24T09:44:34;2.85;;;2.85;;
20844;SDS011;10583;49.084;8.646;2023-08-24T09:47:02;2.80;;;2.80;;
20844;SDS011;10583;49.084;8.646;2023-08-24T09:49:36;3.00;;;3.00;;
20844;SDS011;10583;49.084;8.646;2023-08-24T09:52:03;2.90;;;2.90;;
20844;SDS011;10583;49.084;8.646;2023-08-24T09:54:35;3.25;;;3.25;;
20844;SDS011;10583;49.084;8.646;2023-08-24T09:57:04;2.80;;;2.80;;
20844;SDS011;10583;49.084;8.646;2023-08-24T09:59:33;3.50;;;3.50;;
20844;SDS011;10583;49.084;8.646;2023-08-24T10:02:02;3.13;;;3.13;;
20844;SDS011;10583;49.084;8.646;2023-08-24T10:04:40;3.17;;;3.17;;
20844;SDS011;10583;49.084;8.646;2023-08-24T10:07:09;3.03;;;3.03;;
20844;SDS011;10583;49.084;8.646;2023-08-24T10:09:44;3.05;;;3.05;;
20844;SDS011;10583;49.084;8.646;2023-08-24T10:12:13;3.22;;;3.22;;
20844;SDS011;10583;49.084;8.646;2023-08-24T10:14:47;3.53;;;3.53;;
20844;SDS011;10583;49.084;8.646;2023-08-24T10:17:21;3.03;;;3.03;;
20844;SDS011;10583;49.084;8.646;2023-08-24T10:19:49;3.30;;;3.30;;
20844;SDS011;10583;49.084;8.646;2023-08-24T10:22:18;3.13;;;3.13;;
20844;SDS011;10583;49.084;8.646;2023-08-24T10:24:46;3.30;;;3.30;;
20844;SDS011;10583;49.084;8.646;2023-08-24T10:27:14;3.40;;;3.40;;
20844;SDS011;10583;49.084;8.646;2023-08-24T10:29:41;3.42;;;3.42;;
20844;SDS011;10583;49.084;8.646;2023-08-24T10:32:07;3.08;;;3.08;;
20844;SDS011;10583;49.084;8.646;2023-08-24T10:34:36;3.10;;;3.10;;
20844;SDS011;10583;49.084;8.646;2023-08-24T10:37:07;3.28;;;3.28;;
20844;SDS011;10583;49.084;8.646;2023-08-24T10:39:35;3.08;;;3.08;;
20844;SDS011;10583;49.084;8.646;2023-08-24T10:42:03;3.20;;;3.20;;
20844;SDS011;10583;49.084;8.646;2023-08-24T10:44:34;3.35;;;3.35;;
20844;SDS011;10583;49.084;8.646;2023-08-24T10:47:05;2.80;;;2.80;;
20844;SDS011;10583;49.084;8.646;2023-08-24T10:49:33;3.00;;;3.00;;
20844;SDS011;10583;49.084;8.646;2023-08-24T10:54:56;3.53;;;3.53;;
20844;SDS011;10583;49.084;8.646;2023-08-24T10:57:24;3.78;;;3.78;;
20844;SDS011;10583;49.084;8.646;2023-08-24T11:02:41;3.38;;;3.38;;
20844;SDS011;10583;49.084;8.646;2023-08-24T11:05:18;2.97;;;2.97;;
20844;SDS011;10583;49.084;8.646;2023-08-24T11:07:54;2.97;;;2.97;;
20844;SDS011;10583;49.084;8.646;2023-08-24T11:10:22;3.33;;;3.33;;
20844;SDS011;10583;49.084;8.646;2023-08-24T11:13:09;3.70;;;3.70;;
20844;SDS011;10583;49.084;8.646;2023-08-24T11:15:38;3.00;;;3.00;;
20844;SDS011;10583;49.084;8.646;2023-08-24T11:20:55;3.70;;;3.70;;
20844;SDS011;10583;49.084;8.646;2023-08-24T11:23:24;3.70;;;3.70;;
20844;SDS011;10583;49.084;8.646;2023-08-24T11:25:51;3.60;;;3.60;;
20844;SDS011;10583;49.084;8.646;2023-08-24T11:28:21;3.65;;;3.65;;
20844;SDS011;10583;49.084;8.646;2023-08-24T11:30:49;3.50;;;3.50;;
20844;SDS011;10583;49.084;8.646;2023-08-24T11:33:16;3.50;;;3.50;;
20844;SDS011;10583;49.084;8.646;2023-08-24T11:35:52;3.28;;;3.28;;
20844;SDS011;10583;49.084;8.646;2023-08-24T11:38:19;3.28;;;3.28;;
20844;SDS011;10583;49.084;8.646;2023-08-24T11:40:47;3.40;;;3.40;;
20844;SDS011;10583;49.084;8.646;2023-08-24T11:43:20;3.47;;;3.47;;
20844;SDS011;10583;49.084;8.646;2023-08-24T11:45:53;3.60;;;3.60;;
20844;SDS011;10583;49.084;8.646;2023-08-24T11:48:23;3.53;;;3.53;;
20844;SDS011;10583;49.084;8.646;2023-08-24T11:50:51;3.60;;;3.60;;
20844;SDS011;10583;49.084;8.646;2023-08-24T11:53:19;3.78;;;3.78;;
20844;SDS011;10583;49.084;8.646;2023-08-24T11:55:47;3.67;;;3.67;;
20844;SDS011;10583;49.084;8.646;2023-08-24T11:58:14;3.70;;;3.70;;
20844;SDS011;10583;49.084;8.646;2023-08-24T12:00:42;3.88;;;3.88;;
20844;SDS011;10583;49.084;8.646;2023-08-24T12:03:09;3.42;;;3.42;;
20844;SDS011;10583;49.084;8.646;2023-08-24T12:05:36;3.40;;;3.40;;
20844;SDS011;10583;49.084;8.646;2023-08-24T12:08:03;3.40;;;3.40;;
20844;SDS011;10583;49.084;8.646;2023-08-24T12:10:30;3.58;;;3.58;;
20844;SDS011;10583;49.084;8.646;2023-08-24T12:13:05;3.95;;;3.95;;
20844;SDS011;10583;49.084;8.646;2023-08-24T12:15:33;3.70;;;3.70;;
20844;SDS011;10583;49.084;8.646;2023-08-24T12:18:06;3.00;;;3.00;;
20844;SDS011;10583;49.084;8.646;2023-08-24T12:20:34;3.60;;;3.60;;
20844;SDS011;10583;49.084;8.646;2023-08-24T12:23:01;3.72;;;3.72;;
20844;SDS011;10583;49.084;8.646;2023-08-24T12:25:28;3.47;;;3.47;;
20844;SDS011;10583;49.084;8.646;2023-08-24T12:28:08;3.97;;;3.97;;
20844;SDS011;10583;49.084;8.646;2023-08-24T12:30:46;3.72;;;3.72;;
20844;SDS011;10583;49.084;8.646;2023-08-24T12:33:24;3.97;;;3.97;;
20844;SDS011;10583;49.084;8.646;2023-08-24T12:35:51;4.00;;;4.00;;
20844;SDS011;10583;49.084;8.646;2023-08-24T12:38:18;4.40;;;4.40;;
20844;SDS011;10583;49.084;8.646;2023-08-24T12:40:46;3.92;;;3.92;;
20844;SDS011;10583;49.084;8.646;2023-08-24T12:43:14;4.03;;;4.03;;
20844;SDS011;10583;49.084;8.646;2023-08-24T12:45:40;3.80;;;3.80;;
20844;SDS011;10583;49.084;8.646;2023-08-24T12:48:08;4.35;;;4.35;;
20844;SDS011;10583;49.084;8.646;2023-08-24T12:50:36;4.00;;;4.00;;
20844;SDS011;10583;49.084;8.646;2023-08-24T12:53:04;4.00;;;4.00;;
20844;SDS011;10583;49.084;8.646;2023-08-24T12:55:31;4.30;;;4.30;;
20844;SDS011;10583;49.084;8.646;2023-08-24T12:57:59;4.30;;;4.30;;
20844;SDS011;10583;49.084;8.646;2023-08-24T13:00:27;4.40;;;4.40;;
20844;SDS011;10583;49.084;8.646;2023-08-24T13:02:54;4.20;;;4.20;;
20844;SDS011;10583;49.084;8.646;2023-08-24T13:05:21;4.30;;;4.30;;
20844;SDS011;10583;49.084;8.646;2023-08-24T13:07:48;4.53;;;4.53;;
20844;SDS011;10583;49.084;8.646;2023-08-24T13:10:16;4.97;;;4.97;;
20844;SDS011;10583;49.084;8.646;2023-08-24T13:12:42;4.50;;;4.50;;
20844;SDS011;10583;49.084;8.646;2023-08-24T13:15:09;4.38;;;4.38;;
20844;SDS011;10583;49.084;8.646;2023-08-24T13:17:38;4.60;;;4.60;;
20844;SDS011;10583;49.084;8.646;2023-08-24T13:20:06;4.47;;;4.47;;
20844;SDS011;10583;49.084;8.646;2023-08-24T13:22:33;4.45;;;4.45;;
20844;SDS011;10583;49.084;8.646;2023-08-24T13:25:00;4.45;;;4.45;;
20844;SDS011;10583;49.084;8.646;2023-08-24T13:27:27;4.22;;;4.22;;
20844;SDS011;10583;49.084;8.646;2023-08-24T13:29:53;4.22;;;4.22;;
20844;SDS011;10583;49.084;8.646;2023-08-24T13:32:22;4.65;;;4.65;;
20844;SDS011;10583;49.084;8.646;2023-08-24T13:34:50;4.10;;;4.10;;
20844;SDS011;10583;49.084;8.646;2023-08-24T13:37:17;4.63;;;4.63;;
20844;SDS011;10583;49.084;8.646;2023-08-24T13:39:44;4.80;;;4.80;;
20844;SDS011;10583;49.084;8.646;2023-08-24T13:42:11;4.82;;;4.82;;
20844;SDS011;10583;49.084;8.646;2023-08-24T13:44:39;4.78;;;4.78;;
20844;SDS011;10583;49.084;8.646;2023-08-24T13:47:05;4.63;;;4.63;;
20844;SDS011;10583;49.084;8.646;2023-08-24T13:49:32;4.60;;;4.60;;
20844;SDS011;10583;49.084;8.646;2023-08-24T13:52:00;4.95;;;4.95;;
20844;SDS011;10583;49.084;8.646;2023-08-24T13:54:27;4.07;;;4.07;;
20844;SDS011;10583;49.084;8.646;2023-08-24T13:56:55;4.95;;;4.95;;
20844;SDS011;10583;49.084;8.646;2023-08-24T13:59:23;4.75;;;4.75;;
20844;SDS011;10583;49.084;8.646;2023-08-24T14:01:50;5.00;;;5.00;;
20844;SDS011;10583;49.084;8.646;2023-08-24T14:04:17;5.03;;;5.03;;
20844;SDS011;10583;49.084;8.646;2023-08-24T14:06:44;4.70;;;4.70;;
20844;SDS011;10583;49.084;8.646;2023-08-24T14:09:14;4.75;;;4.75;;
20844;SDS011;10583;49.084;8.646;2023-08-24T14:11:41;4.90;;;4.90;;
20844;SDS011;10583;49.084;8.646;2023-08-24T14:14:08;4.82;;;4.82;;
20844;SDS011;10583;49.084;8.646;2023-08-24T14:16:35;4.97;;;4.97;;
20844;SDS011;10583;49.084;8.646;2023-08-24T14:19:01;4.72;;;4.72;;
20844;SDS011;10583;49.084;8.646;2023-08-24T14:21:28;4.93;;;4.93;;
20844;SDS011;10583;49.084;8.646;2023-08-24T14:23:55;4.72;;;4.72;;
20844;SDS011;10583;49.084;8.646;2023-08-24T14:26:23;5.25;;;5.25;;
20844;SDS011;10583;49.084;8.646;2023-08-24T14:28:51;4.70;;;4.70;;
20844;SDS011;10583;49.084;8.646;2023-08-24T14:31:19;5.07;;;5.07;;
20844;SDS011;10583;49.084;8.646;2023-08-24T14:33:47;4.57;;;4.57;;
20844;SDS011;10583;49.084;8.646;2023-08-24T14:36:14;5.85;;;5.82;;
20844;SDS011;10583;49.084;8.646;2023-08-24T14:38:40;6.47;;;6.47;;
20844;SDS011;10583;49.084;8.646;2023-08-24T14:41:08;9.20;;;9.10;;
20844;SDS011;10583;49.084;8.646;2023-08-24T14:43:37;7.55;;;7.45;;
20844;SDS011;10583;49.084;8.646;2023-08-24T14:46:04;6.60;;;6.60;;
20844;SDS011;10583;49.084;8.646;2023-08-24T14:48:31;6.95;;;6.95;;
20844;SDS011;10583;49.084;8.646;2023-08-24T14:50:58;6.53;;;6.53;;
20844;SDS011;10583;49.084;8.646;2023-08-24T14:53:25;6.35;;;6.35;;
20844;SDS011;10583;49.084;8.646;2023-08-24T14:55:54;5.85;;;5.85;;
20844;SDS011;10583;49.084;8.646;2023-08-24T14:58:21;5.90;;;5.90;;
20844;SDS011;10583;49.084;8.646;2023-08-24T15:00:50;6.53;;;6.53;;